Terminal Aerodrome Forecast
Issued by NWS St Louis, MO

Home | Current Version | Previous Version | Text Only | Print | Product List | Glossary On
Versions: 1 2 3 4 5 6 7 8 9 10 11 12 13 14 15 16 17 18 19 20 21 22 23
000
FTUS43 KLSX 182100 AAA
TAFSTL
TAF AMD
KSTL 182139Z 1822/1924 35010KT P6SM BKN045
     FM190000 01005KT P6SM FEW040
     FM191500 17006KT P6SM SCT250
     FM192000 19010KT P6SM SCT120=

USA.gov is the U.S. government's official web portal to all federal, state and local government web resources and services.